sensor_id;sensor_type;location;lat;lon;timestamp;P1;durP1;ratioP1;P2;durP2;ratioP2
71435;SDS011;59251;51.326;12.370;2023-05-10T00:01:26;9.67;;;2.53;;
71435;SDS011;59251;51.326;12.370;2023-05-10T00:03:51;7.63;;;2.73;;
71435;SDS011;59251;51.326;12.370;2023-05-10T00:06:17;8.90;;;2.93;;
71435;SDS011;59251;51.326;12.370;2023-05-10T00:08:42;10.73;;;2.90;;
71435;SDS011;59251;51.326;12.370;2023-05-10T00:11:08;9.10;;;2.65;;
71435;SDS011;59251;51.326;12.370;2023-05-10T00:13:33;8.33;;;2.97;;
71435;SDS011;59251;51.326;12.370;2023-05-10T00:15:59;8.00;;;3.40;;
71435;SDS011;59251;51.326;12.370;2023-05-10T00:18:24;7.70;;;3.10;;
71435;SDS011;59251;51.326;12.370;2023-05-10T00:20:49;7.17;;;2.73;;
71435;SDS011;59251;51.326;12.370;2023-05-10T00:23:15;8.13;;;2.72;;
71435;SDS011;59251;51.326;12.370;2023-05-10T00:25:40;9.17;;;3.10;;
71435;SDS011;59251;51.326;12.370;2023-05-10T00:28:06;7.50;;;2.87;;
71435;SDS011;59251;51.326;12.370;2023-05-10T00:30:31;8.67;;;3.00;;
71435;SDS011;59251;51.326;12.370;2023-05-10T00:32:56;7.50;;;2.77;;
71435;SDS011;59251;51.326;12.370;2023-05-10T00:35:22;7.75;;;2.80;;
71435;SDS011;59251;51.326;12.370;2023-05-10T00:37:47;9.45;;;2.65;;
71435;SDS011;59251;51.326;12.370;2023-05-10T00:40:13;8.63;;;2.93;;
71435;SDS011;59251;51.326;12.370;2023-05-10T00:42:38;7.50;;;3.28;;
71435;SDS011;59251;51.326;12.370;2023-05-10T00:45:04;7.25;;;3.20;;
71435;SDS011;59251;51.326;12.370;2023-05-10T00:47:30;8.13;;;3.03;;
71435;SDS011;59251;51.326;12.370;2023-05-10T00:49:56;10.17;;;3.20;;
71435;SDS011;59251;51.326;12.370;2023-05-10T00:52:22;8.50;;;2.85;;
71435;SDS011;59251;51.326;12.370;2023-05-10T00:54:49;11.15;;;3.80;;
71435;SDS011;59251;51.326;12.370;2023-05-10T00:57:15;8.50;;;3.05;;
71435;SDS011;59251;51.326;12.370;2023-05-10T00:59:40;9.97;;;3.10;;
71435;SDS011;59251;51.326;12.370;2023-05-10T01:02:06;7.35;;;2.78;;
71435;SDS011;59251;51.326;12.370;2023-05-10T01:04:31;8.43;;;3.03;;
71435;SDS011;59251;51.326;12.370;2023-05-10T01:06:57;7.30;;;2.90;;
71435;SDS011;59251;51.326;12.370;2023-05-10T01:09:23;8.70;;;2.90;;
71435;SDS011;59251;51.326;12.370;2023-05-10T01:11:51;7.50;;;2.65;;
71435;SDS011;59251;51.326;12.370;2023-05-10T01:14:17;7.73;;;2.90;;
71435;SDS011;59251;51.326;12.370;2023-05-10T01:16:44;8.75;;;2.97;;
71435;SDS011;59251;51.326;12.370;2023-05-10T01:19:23;7.78;;;2.83;;
71435;SDS011;59251;51.326;12.370;2023-05-10T01:35:30;7.80;;;3.25;;
71435;SDS011;59251;51.326;12.370;2023-05-10T01:38:15;8.32;;;2.75;;
71435;SDS011;59251;51.326;12.370;2023-05-10T01:43:45;9.77;;;3.60;;
71435;SDS011;59251;51.326;12.370;2023-05-10T01:46:35;9.60;;;3.30;;
71435;SDS011;59251;51.326;12.370;2023-05-10T01:49:02;8.82;;;3.28;;
71435;SDS011;59251;51.326;12.370;2023-05-10T01:51:35;8.27;;;3.05;;
71435;SDS011;59251;51.326;12.370;2023-05-10T01:54:07;9.40;;;3.00;;
71435;SDS011;59251;51.326;12.370;2023-05-10T01:56:35;7.78;;;2.88;;
71435;SDS011;59251;51.326;12.370;2023-05-10T01:59:04;8.85;;;2.95;;
71435;SDS011;59251;51.326;12.370;2023-05-10T02:01:33;6.77;;;2.83;;
71435;SDS011;59251;51.326;12.370;2023-05-10T02:04:01;8.55;;;2.97;;
71435;SDS011;59251;51.326;12.370;2023-05-10T02:06:28;8.68;;;2.72;;
71435;SDS011;59251;51.326;12.370;2023-05-10T02:08:53;7.97;;;3.03;;
71435;SDS011;59251;51.326;12.370;2023-05-10T02:11:20;8.75;;;3.28;;
71435;SDS011;59251;51.326;12.370;2023-05-10T02:13:47;8.65;;;2.90;;
71435;SDS011;59251;51.326;12.370;2023-05-10T02:16:14;8.55;;;2.97;;
71435;SDS011;59251;51.326;12.370;2023-05-10T02:18:41;6.75;;;2.38;;
71435;SDS011;59251;51.326;12.370;2023-05-10T02:21:08;7.87;;;2.80;;
71435;SDS011;59251;51.326;12.370;2023-05-10T02:23:34;6.43;;;2.80;;
71435;SDS011;59251;51.326;12.370;2023-05-10T02:26:02;7.45;;;3.17;;
71435;SDS011;59251;51.326;12.370;2023-05-10T02:28:30;9.23;;;3.60;;
71435;SDS011;59251;51.326;12.370;2023-05-10T02:30:56;8.88;;;3.10;;
71435;SDS011;59251;51.326;12.370;2023-05-10T02:33:22;8.23;;;3.40;;
71435;SDS011;59251;51.326;12.370;2023-05-10T02:35:49;8.55;;;3.22;;
71435;SDS011;59251;51.326;12.370;2023-05-10T02:38:15;9.70;;;3.17;;
71435;SDS011;59251;51.326;12.370;2023-05-10T02:40:43;9.17;;;3.20;;
71435;SDS011;59251;51.326;12.370;2023-05-10T02:43:12;7.75;;;2.97;;
71435;SDS011;59251;51.326;12.370;2023-05-10T02:45:39;9.25;;;3.10;;
71435;SDS011;59251;51.326;12.370;2023-05-10T02:48:06;8.38;;;3.72;;
71435;SDS011;59251;51.326;12.370;2023-05-10T02:50:32;8.17;;;3.10;;
71435;SDS011;59251;51.326;12.370;2023-05-10T02:53:03;7.35;;;3.22;;
71435;SDS011;59251;51.326;12.370;2023-05-10T02:55:38;8.13;;;3.25;;
71435;SDS011;59251;51.326;12.370;2023-05-10T02:58:05;10.63;;;3.55;;
71435;SDS011;59251;51.326;12.370;2023-05-10T03:00:31;7.93;;;3.42;;
71435;SDS011;59251;51.326;12.370;2023-05-10T03:02:56;8.40;;;3.20;;
71435;SDS011;59251;51.326;12.370;2023-05-10T03:05:22;7.28;;;3.05;;
71435;SDS011;59251;51.326;12.370;2023-05-10T03:07:48;7.10;;;3.10;;
71435;SDS011;59251;51.326;12.370;2023-05-10T03:10:13;9.68;;;2.95;;
71435;SDS011;59251;51.326;12.370;2023-05-10T03:18:13;8.50;;;3.43;;
71435;SDS011;59251;51.326;12.370;2023-05-10T03:20:45;6.38;;;2.70;;
71435;SDS011;59251;51.326;12.370;2023-05-10T03:23:27;7.72;;;3.10;;
71435;SDS011;59251;51.326;12.370;2023-05-10T03:26:09;10.27;;;3.35;;
71435;SDS011;59251;51.326;12.370;2023-05-10T03:28:38;9.32;;;3.03;;
71435;SDS011;59251;51.326;12.370;2023-05-10T03:31:04;7.23;;;2.83;;
71435;SDS011;59251;51.326;12.370;2023-05-10T03:33:32;8.07;;;3.13;;
71435;SDS011;59251;51.326;12.370;2023-05-10T03:35:57;9.57;;;3.23;;
71435;SDS011;59251;51.326;12.370;2023-05-10T03:38:22;8.63;;;3.07;;
71435;SDS011;59251;51.326;12.370;2023-05-10T03:40:48;7.85;;;3.30;;
71435;SDS011;59251;51.326;12.370;2023-05-10T03:43:13;8.52;;;3.15;;
71435;SDS011;59251;51.326;12.370;2023-05-10T03:45:38;11.37;;;3.97;;
71435;SDS011;59251;51.326;12.370;2023-05-10T03:48:04;8.20;;;3.20;;
71435;SDS011;59251;51.326;12.370;2023-05-10T03:50:30;8.32;;;3.33;;
71435;SDS011;59251;51.326;12.370;2023-05-10T03:52:55;9.13;;;3.17;;
71435;SDS011;59251;51.326;12.370;2023-05-10T03:55:22;7.55;;;3.03;;
71435;SDS011;59251;51.326;12.370;2023-05-10T03:57:47;13.50;;;3.20;;
71435;SDS011;59251;51.326;12.370;2023-05-10T04:00:14;9.35;;;3.60;;
71435;SDS011;59251;51.326;12.370;2023-05-10T04:02:40;10.27;;;3.13;;
71435;SDS011;59251;51.326;12.370;2023-05-10T04:05:05;10.57;;;3.60;;
71435;SDS011;59251;51.326;12.370;2023-05-10T04:07:31;8.38;;;3.20;;
71435;SDS011;59251;51.326;12.370;2023-05-10T04:09:56;10.50;;;3.22;;
71435;SDS011;59251;51.326;12.370;2023-05-10T04:12:22;7.40;;;2.97;;
71435;SDS011;59251;51.326;12.370;2023-05-10T04:14:47;11.27;;;3.70;;
71435;SDS011;59251;51.326;12.370;2023-05-10T04:17:13;8.70;;;3.43;;
71435;SDS011;59251;51.326;12.370;2023-05-10T04:19:38;14.73;;;3.53;;
71435;SDS011;59251;51.326;12.370;2023-05-10T04:22:03;9.33;;;3.67;;
71435;SDS011;59251;51.326;12.370;2023-05-10T04:24:29;8.50;;;3.30;;
71435;SDS011;59251;51.326;12.370;2023-05-10T04:26:54;7.75;;;3.10;;
71435;SDS011;59251;51.326;12.370;2023-05-10T04:29:20;10.07;;;2.90;;
71435;SDS011;59251;51.326;12.370;2023-05-10T04:31:45;8.40;;;2.97;;
71435;SDS011;59251;51.326;12.370;2023-05-10T04:34:10;9.27;;;3.42;;
71435;SDS011;59251;51.326;12.370;2023-05-10T04:36:36;9.45;;;2.97;;
71435;SDS011;59251;51.326;12.370;2023-05-10T04:39:02;8.30;;;2.80;;
71435;SDS011;59251;51.326;12.370;2023-05-10T04:41:28;9.30;;;2.70;;
71435;SDS011;59251;51.326;12.370;2023-05-10T04:43:54;7.90;;;3.10;;
71435;SDS011;59251;51.326;12.370;2023-05-10T04:46:20;8.13;;;3.03;;
71435;SDS011;59251;51.326;12.370;2023-05-10T04:48:45;10.80;;;3.78;;
71435;SDS011;59251;51.326;12.370;2023-05-10T04:51:11;13.77;;;3.60;;
71435;SDS011;59251;51.326;12.370;2023-05-10T04:53:36;8.37;;;2.93;;
71435;SDS011;59251;51.326;12.370;2023-05-10T04:56:01;8.30;;;2.60;;
71435;SDS011;59251;51.326;12.370;2023-05-10T04:58:27;9.23;;;3.13;;
71435;SDS011;59251;51.326;12.370;2023-05-10T05:00:52;10.50;;;3.00;;
71435;SDS011;59251;51.326;12.370;2023-05-10T05:03:17;9.63;;;2.83;;
71435;SDS011;59251;51.326;12.370;2023-05-10T05:05:43;8.80;;;3.00;;
71435;SDS011;59251;51.326;12.370;2023-05-10T05:08:09;7.28;;;2.55;;
71435;SDS011;59251;51.326;12.370;2023-05-10T05:10:34;9.20;;;2.60;;
71435;SDS011;59251;51.326;12.370;2023-05-10T05:13:00;7.80;;;2.27;;
71435;SDS011;59251;51.326;12.370;2023-05-10T05:15:25;7.67;;;2.37;;
71435;SDS011;59251;51.326;12.370;2023-05-10T05:17:50;7.53;;;3.10;;
71435;SDS011;59251;51.326;12.370;2023-05-10T05:20:16;8.00;;;2.80;;
71435;SDS011;59251;51.326;12.370;2023-05-10T05:22:42;8.10;;;2.90;;
71435;SDS011;59251;51.326;12.370;2023-05-10T05:25:07;7.60;;;2.87;;
71435;SDS011;59251;51.326;12.370;2023-05-10T05:27:33;9.57;;;2.85;;
71435;SDS011;59251;51.326;12.370;2023-05-10T05:29:58;10.40;;;3.00;;
71435;SDS011;59251;51.326;12.370;2023-05-10T05:32:24;8.63;;;2.50;;
71435;SDS011;59251;51.326;12.370;2023-05-10T05:34:49;7.93;;;2.72;;
71435;SDS011;59251;51.326;12.370;2023-05-10T05:37:15;7.97;;;3.00;;
71435;SDS011;59251;51.326;12.370;2023-05-10T05:39:45;8.63;;;2.70;;
71435;SDS011;59251;51.326;12.370;2023-05-10T05:42:10;8.88;;;3.00;;
71435;SDS011;59251;51.326;12.370;2023-05-10T05:44:37;7.23;;;2.70;;
71435;SDS011;59251;51.326;12.370;2023-05-10T05:47:03;8.70;;;2.80;;
71435;SDS011;59251;51.326;12.370;2023-05-10T05:49:29;8.48;;;3.33;;
71435;SDS011;59251;51.326;12.370;2023-05-10T05:51:54;9.73;;;2.87;;
71435;SDS011;59251;51.326;12.370;2023-05-10T05:54:19;8.20;;;2.60;;
71435;SDS011;59251;51.326;12.370;2023-05-10T05:56:45;8.90;;;3.00;;
71435;SDS011;59251;51.326;12.370;2023-05-10T05:59:10;9.30;;;3.07;;
71435;SDS011;59251;51.326;12.370;2023-05-10T06:01:36;14.63;;;2.80;;
71435;SDS011;59251;51.326;12.370;2023-05-10T06:04:01;7.83;;;2.93;;
71435;SDS011;59251;51.326;12.370;2023-05-10T06:06:27;7.28;;;2.75;;
71435;SDS011;59251;51.326;12.370;2023-05-10T06:08:53;7.73;;;3.03;;
71435;SDS011;59251;51.326;12.370;2023-05-10T06:11:18;8.37;;;2.80;;
71435;SDS011;59251;51.326;12.370;2023-05-10T06:13:43;9.00;;;3.33;;
71435;SDS011;59251;51.326;12.370;2023-05-10T06:16:09;8.47;;;3.00;;
71435;SDS011;59251;51.326;12.370;2023-05-10T06:18:34;8.27;;;2.70;;
71435;SDS011;59251;51.326;12.370;2023-05-10T06:21:00;10.10;;;3.10;;
71435;SDS011;59251;51.326;12.370;2023-05-10T06:23:25;7.40;;;2.70;;
71435;SDS011;59251;51.326;12.370;2023-05-10T06:25:51;9.73;;;3.17;;
71435;SDS011;59251;51.326;12.370;2023-05-10T06:28:17;7.27;;;2.63;;
71435;SDS011;59251;51.326;12.370;2023-05-10T06:30:42;7.13;;;2.90;;
71435;SDS011;59251;51.326;12.370;2023-05-10T06:33:07;9.00;;;3.30;;
71435;SDS011;59251;51.326;12.370;2023-05-10T06:35:33;8.33;;;3.10;;
71435;SDS011;59251;51.326;12.370;2023-05-10T06:37:59;9.98;;;3.20;;
71435;SDS011;59251;51.326;12.370;2023-05-10T06:40:24;11.30;;;3.27;;
71435;SDS011;59251;51.326;12.370;2023-05-10T06:42:50;7.40;;;2.93;;
71435;SDS011;59251;51.326;12.370;2023-05-10T06:45:15;9.32;;;3.08;;
71435;SDS011;59251;51.326;12.370;2023-05-10T06:47:41;6.70;;;2.57;;
71435;SDS011;59251;51.326;12.370;2023-05-10T06:50:07;7.50;;;2.53;;
71435;SDS011;59251;51.326;12.370;2023-05-10T06:52:33;7.05;;;2.75;;
71435;SDS011;59251;51.326;12.370;2023-05-10T06:54:59;9.77;;;2.77;;
71435;SDS011;59251;51.326;12.370;2023-05-10T06:57:25;8.02;;;2.60;;
71435;SDS011;59251;51.326;12.370;2023-05-10T06:59:50;8.33;;;3.30;;
71435;SDS011;59251;51.326;12.370;2023-05-10T07:02:17;7.63;;;2.55;;
71435;SDS011;59251;51.326;12.370;2023-05-10T07:04:42;7.87;;;2.70;;
71435;SDS011;59251;51.326;12.370;2023-05-10T07:07:08;7.35;;;2.70;;
71435;SDS011;59251;51.326;12.370;2023-05-10T07:09:33;9.80;;;3.33;;
71435;SDS011;59251;51.326;12.370;2023-05-10T07:11:59;8.30;;;3.13;;
71435;SDS011;59251;51.326;12.370;2023-05-10T07:14:24;9.83;;;2.97;;
71435;SDS011;59251;51.326;12.370;2023-05-10T07:16:49;8.53;;;2.60;;
71435;SDS011;59251;51.326;12.370;2023-05-10T07:19:15;9.15;;;2.80;;
71435;SDS011;59251;51.326;12.370;2023-05-10T07:21:40;9.03;;;2.80;;
71435;SDS011;59251;51.326;12.370;2023-05-10T07:24:08;7.53;;;2.40;;
71435;SDS011;59251;51.326;12.370;2023-05-10T07:26:33;6.55;;;2.60;;
71435;SDS011;59251;51.326;12.370;2023-05-10T07:28:58;8.80;;;2.40;;
71435;SDS011;59251;51.326;12.370;2023-05-10T07:31:24;10.37;;;2.87;;
71435;SDS011;59251;51.326;12.370;2023-05-10T07:33:49;8.93;;;2.80;;
71435;SDS011;59251;51.326;12.370;2023-05-10T07:36:14;8.17;;;2.70;;
71435;SDS011;59251;51.326;12.370;2023-05-10T07:38:40;7.88;;;2.83;;
71435;SDS011;59251;51.326;12.370;2023-05-10T07:41:05;12.17;;;2.77;;
71435;SDS011;59251;51.326;12.370;2023-05-10T07:43:31;7.67;;;2.63;;
71435;SDS011;59251;51.326;12.370;2023-05-10T07:45:56;7.97;;;2.57;;
71435;SDS011;59251;51.326;12.370;2023-05-10T07:48:22;6.85;;;2.50;;
71435;SDS011;59251;51.326;12.370;2023-05-10T07:50:47;7.83;;;3.50;;
71435;SDS011;59251;51.326;12.370;2023-05-10T07:53:13;8.53;;;2.67;;
71435;SDS011;59251;51.326;12.370;2023-05-10T07:55:38;7.60;;;2.50;;
71435;SDS011;59251;51.326;12.370;2023-05-10T07:58:03;7.13;;;2.90;;
71435;SDS011;59251;51.326;12.370;2023-05-10T08:00:29;6.23;;;2.43;;
71435;SDS011;59251;51.326;12.370;2023-05-10T08:02:54;8.57;;;2.80;;
71435;SDS011;59251;51.326;12.370;2023-05-10T08:05:19;7.67;;;2.97;;
71435;SDS011;59251;51.326;12.370;2023-05-10T08:07:45;7.50;;;3.30;;
71435;SDS011;59251;51.326;12.370;2023-05-10T08:10:10;7.47;;;3.50;;
71435;SDS011;59251;51.326;12.370;2023-05-10T08:12:36;6.40;;;2.53;;
71435;SDS011;59251;51.326;12.370;2023-05-10T08:15:01;8.00;;;2.55;;
71435;SDS011;59251;51.326;12.370;2023-05-10T08:17:28;7.57;;;2.95;;
71435;SDS011;59251;51.326;12.370;2023-05-10T08:19:53;8.13;;;3.47;;
71435;SDS011;59251;51.326;12.370;2023-05-10T08:22:18;7.83;;;3.20;;
71435;SDS011;59251;51.326;12.370;2023-05-10T08:24:44;10.03;;;3.03;;
71435;SDS011;59251;51.326;12.370;2023-05-10T08:27:10;9.95;;;3.53;;
71435;SDS011;59251;51.326;12.370;2023-05-10T08:29:35;9.10;;;3.30;;
71435;SDS011;59251;51.326;12.370;2023-05-10T08:32:00;8.73;;;2.60;;
71435;SDS011;59251;51.326;12.370;2023-05-10T08:34:26;7.27;;;3.10;;
71435;SDS011;59251;51.326;12.370;2023-05-10T08:36:52;9.60;;;3.28;;
71435;SDS011;59251;51.326;12.370;2023-05-10T08:39:17;9.05;;;3.05;;
71435;SDS011;59251;51.326;12.370;2023-05-10T08:41:43;11.63;;;3.40;;
71435;SDS011;59251;51.326;12.370;2023-05-10T08:44:09;9.40;;;3.00;;
71435;SDS011;59251;51.326;12.370;2023-05-10T08:46:35;8.87;;;3.33;;
71435;SDS011;59251;51.326;12.370;2023-05-10T08:49:04;9.48;;;3.40;;
71435;SDS011;59251;51.326;12.370;2023-05-10T08:51:33;7.93;;;3.45;;
71435;SDS011;59251;51.326;12.370;2023-05-10T08:54:01;10.30;;;3.70;;
71435;SDS011;59251;51.326;12.370;2023-05-10T08:56:28;9.45;;;3.63;;
71435;SDS011;59251;51.326;12.370;2023-05-10T08:58:53;7.70;;;2.90;;
71435;SDS011;59251;51.326;12.370;2023-05-10T09:01:20;8.50;;;3.53;;
71435;SDS011;59251;51.326;12.370;2023-05-10T09:03:46;9.60;;;3.70;;
71435;SDS011;59251;51.326;12.370;2023-05-10T09:06:13;10.15;;;3.30;;
71435;SDS011;59251;51.326;12.370;2023-05-10T09:08:39;8.45;;;3.78;;
71435;SDS011;59251;51.326;12.370;2023-05-10T09:11:07;8.63;;;4.18;;
71435;SDS011;59251;51.326;12.370;2023-05-10T09:13:33;10.05;;;4.03;;
71435;SDS011;59251;51.326;12.370;2023-05-10T09:16:00;9.88;;;4.22;;
71435;SDS011;59251;51.326;12.370;2023-05-10T09:18:26;9.60;;;4.40;;
71435;SDS011;59251;51.326;12.370;2023-05-10T09:20:51;9.10;;;4.00;;
71435;SDS011;59251;51.326;12.370;2023-05-10T09:23:16;14.80;;;5.40;;
71435;SDS011;59251;51.326;12.370;2023-05-10T09:25:42;8.47;;;3.90;;
71435;SDS011;59251;51.326;12.370;2023-05-10T09:28:07;10.03;;;4.23;;
71435;SDS011;59251;51.326;12.370;2023-05-10T09:30:34;11.63;;;4.63;;
71435;SDS011;59251;51.326;12.370;2023-05-10T09:33:00;8.98;;;4.50;;
71435;SDS011;59251;51.326;12.370;2023-05-10T09:35:26;9.85;;;4.60;;
71435;SDS011;59251;51.326;12.370;2023-05-10T09:37:54;14.48;;;4.63;;
71435;SDS011;59251;51.326;12.370;2023-05-10T09:40:22;10.60;;;5.00;;
71435;SDS011;59251;51.326;12.370;2023-05-10T09:42:53;9.90;;;4.57;;
71435;SDS011;59251;51.326;12.370;2023-05-10T09:45:23;10.55;;;4.60;;
71435;SDS011;59251;51.326;12.370;2023-05-10T09:47:49;11.93;;;5.00;;
71435;SDS011;59251;51.326;12.370;2023-05-10T09:50:15;11.77;;;5.03;;
71435;SDS011;59251;51.326;12.370;2023-05-10T09:52:47;11.23;;;4.95;;
71435;SDS011;59251;51.326;12.370;2023-05-10T09:55:37;10.75;;;4.88;;
71435;SDS011;59251;51.326;12.370;2023-05-10T09:58:07;10.90;;;5.28;;
71435;SDS011;59251;51.326;12.370;2023-05-10T10:00:38;10.35;;;5.40;;
71435;SDS011;59251;51.326;12.370;2023-05-10T10:03:17;10.77;;;5.80;;
71435;SDS011;59251;51.326;12.370;2023-05-10T10:05:43;11.02;;;5.10;;
71435;SDS011;59251;51.326;12.370;2023-05-10T10:08:11;10.55;;;5.47;;
71435;SDS011;59251;51.326;12.370;2023-05-10T10:10:37;9.80;;;5.07;;
71435;SDS011;59251;51.326;12.370;2023-05-10T10:13:05;11.65;;;5.50;;
71435;SDS011;59251;51.326;12.370;2023-05-10T10:15:30;13.30;;;6.90;;
71435;SDS011;59251;51.326;12.370;2023-05-10T10:17:57;11.57;;;5.40;;
71435;SDS011;59251;51.326;12.370;2023-05-10T10:20:24;11.80;;;5.53;;
71435;SDS011;59251;51.326;12.370;2023-05-10T10:22:50;10.95;;;5.28;;
71435;SDS011;59251;51.326;12.370;2023-05-10T10:25:16;9.77;;;5.20;;
71435;SDS011;59251;51.326;12.370;2023-05-10T10:30:25;11.43;;;5.63;;
71435;SDS011;59251;51.326;12.370;2023-05-10T10:35:39;11.37;;;6.10;;
71435;SDS011;59251;51.326;12.370;2023-05-10T10:38:05;11.50;;;5.95;;
71435;SDS011;59251;51.326;12.370;2023-05-10T10:40:33;12.98;;;6.18;;
71435;SDS011;59251;51.326;12.370;2023-05-10T10:43:21;10.95;;;5.55;;
71435;SDS011;59251;51.326;12.370;2023-05-10T10:46:10;11.82;;;5.80;;
71435;SDS011;59251;51.326;12.370;2023-05-10T10:49:16;15.43;;;5.57;;
71435;SDS011;59251;51.326;12.370;2023-05-10T10:51:38;11.05;;;6.10;;
71435;SDS011;59251;51.326;12.370;2023-05-10T10:54:10;12.75;;;6.30;;
71435;SDS011;59251;51.326;12.370;2023-05-10T10:56:36;12.15;;;6.43;;
71435;SDS011;59251;51.326;12.370;2023-05-10T10:59:01;11.50;;;5.90;;
71435;SDS011;59251;51.326;12.370;2023-05-10T11:01:27;12.33;;;5.97;;
71435;SDS011;59251;51.326;12.370;2023-05-10T11:06:32;12.33;;;6.30;;
71435;SDS011;59251;51.326;12.370;2023-05-10T11:08:59;12.80;;;6.20;;
71435;SDS011;59251;51.326;12.370;2023-05-10T11:11:25;12.55;;;6.63;;
71435;SDS011;59251;51.326;12.370;2023-05-10T11:13:50;13.37;;;6.87;;
71435;SDS011;59251;51.326;12.370;2023-05-10T11:16:23;15.52;;;7.35;;
71435;SDS011;59251;51.326;12.370;2023-05-10T11:21:27;14.60;;;7.93;;
71435;SDS011;59251;51.326;12.370;2023-05-10T11:23:53;13.43;;;6.95;;
71435;SDS011;59251;51.326;12.370;2023-05-10T11:26:21;12.18;;;6.88;;
71435;SDS011;59251;51.326;12.370;2023-05-10T11:28:51;15.13;;;6.30;;
71435;SDS011;59251;51.326;12.370;2023-05-10T11:31:23;14.48;;;6.43;;
71435;SDS011;59251;51.326;12.370;2023-05-10T11:33:52;13.05;;;6.90;;
71435;SDS011;59251;51.326;12.370;2023-05-10T11:36:35;13.45;;;7.30;;
71435;SDS011;59251;51.326;12.370;2023-05-10T11:39:01;12.15;;;6.78;;
71435;SDS011;59251;51.326;12.370;2023-05-10T11:41:28;12.27;;;6.20;;
71435;SDS011;59251;51.326;12.370;2023-05-10T11:43:54;12.93;;;6.32;;
71435;SDS011;59251;51.326;12.370;2023-05-10T11:46:21;14.05;;;6.82;;
71435;SDS011;59251;51.326;12.370;2023-05-10T11:48:49;13.40;;;6.85;;
71435;SDS011;59251;51.326;12.370;2023-05-10T11:51:19;10.98;;;6.55;;
71435;SDS011;59251;51.326;12.370;2023-05-10T11:53:46;13.30;;;6.90;;
71435;SDS011;59251;51.326;12.370;2023-05-10T11:56:11;15.27;;;7.50;;
71435;SDS011;59251;51.326;12.370;2023-05-10T11:58:38;12.60;;;7.47;;
71435;SDS011;59251;51.326;12.370;2023-05-10T12:01:05;12.77;;;7.83;;
71435;SDS011;59251;51.326;12.370;2023-05-10T12:03:32;11.88;;;7.10;;
71435;SDS011;59251;51.326;12.370;2023-05-10T12:05:58;13.82;;;6.82;;
71435;SDS011;59251;51.326;12.370;2023-05-10T12:08:26;12.65;;;7.07;;
71435;SDS011;59251;51.326;12.370;2023-05-10T12:10:53;12.57;;;7.25;;
71435;SDS011;59251;51.326;12.370;2023-05-10T12:13:28;12.33;;;7.33;;
71435;SDS011;59251;51.326;12.370;2023-05-10T12:15:54;12.85;;;7.20;;
71435;SDS011;59251;51.326;12.370;2023-05-10T12:18:23;11.65;;;7.00;;
71435;SDS011;59251;51.326;12.370;2023-05-10T12:20:52;11.65;;;6.93;;
71435;SDS011;59251;51.326;12.370;2023-05-10T12:23:21;11.53;;;6.30;;
71435;SDS011;59251;51.326;12.370;2023-05-10T12:25:46;14.18;;;7.50;;
71435;SDS011;59251;51.326;12.370;2023-05-10T12:28:11;14.50;;;7.87;;
71435;SDS011;59251;51.326;12.370;2023-05-10T12:30:37;13.53;;;7.10;;
71435;SDS011;59251;51.326;12.370;2023-05-10T12:33:11;11.57;;;6.80;;
71435;SDS011;59251;51.326;12.370;2023-05-10T12:36:11;12.13;;;7.13;;
71435;SDS011;59251;51.326;12.370;2023-05-10T12:38:34;12.07;;;6.20;;
71435;SDS011;59251;51.326;12.370;2023-05-10T12:41:04;11.98;;;6.55;;
71435;SDS011;59251;51.326;12.370;2023-05-10T12:43:34;12.63;;;6.32;;
71435;SDS011;59251;51.326;12.370;2023-05-10T12:46:13;11.57;;;6.57;;
71435;SDS011;59251;51.326;12.370;2023-05-10T12:48:42;11.88;;;6.60;;
71435;SDS011;59251;51.326;12.370;2023-05-10T12:51:08;10.77;;;6.30;;
71435;SDS011;59251;51.326;12.370;2023-05-10T12:53:34;12.48;;;6.45;;
71435;SDS011;59251;51.326;12.370;2023-05-10T12:56:00;10.48;;;6.03;;
71435;SDS011;59251;51.326;12.370;2023-05-10T12:58:26;12.37;;;6.67;;
71435;SDS011;59251;51.326;12.370;2023-05-10T13:00:51;12.63;;;6.78;;
71435;SDS011;59251;51.326;12.370;2023-05-10T13:03:17;10.87;;;6.20;;
71435;SDS011;59251;51.326;12.370;2023-05-10T13:05:43;10.37;;;5.20;;
71435;SDS011;59251;51.326;12.370;2023-05-10T13:08:08;10.03;;;5.00;;
71435;SDS011;59251;51.326;12.370;2023-05-10T13:10:33;9.83;;;5.37;;
71435;SDS011;59251;51.326;12.370;2023-05-10T13:12:59;10.30;;;5.17;;
71435;SDS011;59251;51.326;12.370;2023-05-10T13:15:25;12.27;;;5.17;;
71435;SDS011;59251;51.326;12.370;2023-05-10T13:17:50;11.32;;;5.50;;
71435;SDS011;59251;51.326;12.370;2023-05-10T13:20:16;9.13;;;4.40;;
71435;SDS011;59251;51.326;12.370;2023-05-10T13:22:42;10.65;;;5.30;;
71435;SDS011;59251;51.326;12.370;2023-05-10T13:25:08;9.33;;;5.13;;
71435;SDS011;59251;51.326;12.370;2023-05-10T13:27:34;10.05;;;5.10;;
71435;SDS011;59251;51.326;12.370;2023-05-10T13:29:59;9.43;;;5.00;;
71435;SDS011;59251;51.326;12.370;2023-05-10T13:32:25;8.63;;;4.80;;
71435;SDS011;59251;51.326;12.370;2023-05-10T13:34:51;10.03;;;4.73;;
71435;SDS011;59251;51.326;12.370;2023-05-10T13:37:16;9.00;;;4.23;;
71435;SDS011;59251;51.326;12.370;2023-05-10T13:39:42;8.43;;;4.20;;
71435;SDS011;59251;51.326;12.370;2023-05-10T13:42:07;11.27;;;4.40;;
71435;SDS011;59251;51.326;12.370;2023-05-10T13:44:32;8.57;;;4.50;;
71435;SDS011;59251;51.326;12.370;2023-05-10T13:46:58;8.73;;;4.53;;
71435;SDS011;59251;51.326;12.370;2023-05-10T13:49:24;10.33;;;4.80;;
71435;SDS011;59251;51.326;12.370;2023-05-10T13:51:49;12.10;;;5.27;;
71435;SDS011;59251;51.326;12.370;2023-05-10T13:54:15;10.25;;;4.63;;
71435;SDS011;59251;51.326;12.370;2023-05-10T13:56:44;9.30;;;4.50;;
71435;SDS011;59251;51.326;12.370;2023-05-10T13:59:09;9.23;;;4.63;;
71435;SDS011;59251;51.326;12.370;2023-05-10T14:01:35;10.17;;;4.80;;
71435;SDS011;59251;51.326;12.370;2023-05-10T14:04:01;9.00;;;4.30;;
71435;SDS011;59251;51.326;12.370;2023-05-10T14:06:26;8.75;;;4.03;;
71435;SDS011;59251;51.326;12.370;2023-05-10T14:08:52;8.20;;;3.73;;
71435;SDS011;59251;51.326;12.370;2023-05-10T14:11:18;10.75;;;4.38;;
71435;SDS011;59251;51.326;12.370;2023-05-10T14:13:43;9.00;;;4.40;;
71435;SDS011;59251;51.326;12.370;2023-05-10T14:16:09;9.37;;;5.00;;
71435;SDS011;59251;51.326;12.370;2023-05-10T14:18:34;10.30;;;4.77;;
71435;SDS011;59251;51.326;12.370;2023-05-10T14:21:01;9.73;;;4.93;;
71435;SDS011;59251;51.326;12.370;2023-05-10T14:23:27;9.25;;;5.40;;
71435;SDS011;59251;51.326;12.370;2023-05-10T14:25:53;10.43;;;5.50;;
71435;SDS011;59251;51.326;12.370;2023-05-10T14:28:19;10.70;;;5.77;;
71435;SDS011;59251;51.326;12.370;2023-05-10T14:30:45;12.45;;;5.75;;
71435;SDS011;59251;51.326;12.370;2023-05-10T14:33:11;10.82;;;5.72;;
71435;SDS011;59251;51.326;12.370;2023-05-10T14:35:37;11.43;;;6.10;;
71435;SDS011;59251;51.326;12.370;2023-05-10T14:38:02;9.15;;;5.18;;
71435;SDS011;59251;51.326;12.370;2023-05-10T14:40:31;9.47;;;4.30;;
71435;SDS011;59251;51.326;12.370;2023-05-10T14:42:56;8.40;;;4.00;;
71435;SDS011;59251;51.326;12.370;2023-05-10T14:45:22;8.50;;;4.10;;
71435;SDS011;59251;51.326;12.370;2023-05-10T14:47:48;8.50;;;4.20;;
71435;SDS011;59251;51.326;12.370;2023-05-10T14:50:15;8.90;;;3.80;;
71435;SDS011;59251;51.326;12.370;2023-05-10T14:52:41;7.53;;;3.88;;
71435;SDS011;59251;51.326;12.370;2023-05-10T14:55:06;9.37;;;4.87;;
71435;SDS011;59251;51.326;12.370;2023-05-10T14:57:32;7.43;;;3.60;;
71435;SDS011;59251;51.326;12.370;2023-05-10T14:59:58;7.97;;;3.30;;
71435;SDS011;59251;51.326;12.370;2023-05-10T15:02:23;6.63;;;2.07;;